sensor_id;sensor_type;location;lat;lon;timestamp;P1;durP1;ratioP1;P2;durP2;ratioP2
65667;SDS011;52369;52.542;13.232;2022-12-07T00:00:49;13.63;;;6.03;;
65667;SDS011;52369;52.542;13.232;2022-12-07T00:03:15;12.07;;;5.47;;
65667;SDS011;52369;52.542;13.232;2022-12-07T00:05:41;13.75;;;5.53;;
65667;SDS011;52369;52.542;13.232;2022-12-07T00:08:07;12.20;;;5.30;;
65667;SDS011;52369;52.542;13.232;2022-12-07T00:10:33;11.60;;;5.50;;
65667;SDS011;52369;52.542;13.232;2022-12-07T00:12:59;12.88;;;5.70;;
65667;SDS011;52369;52.542;13.232;2022-12-07T00:15:25;11.40;;;5.15;;
65667;SDS011;52369;52.542;13.232;2022-12-07T00:17:51;12.57;;;5.88;;
65667;SDS011;52369;52.542;13.232;2022-12-07T00:20:17;12.07;;;5.80;;
65667;SDS011;52369;52.542;13.232;2022-12-07T00:22:43;12.82;;;5.55;;
65667;SDS011;52369;52.542;13.232;2022-12-07T00:25:09;11.45;;;5.22;;
65667;SDS011;52369;52.542;13.232;2022-12-07T00:27:35;11.18;;;5.57;;
65667;SDS011;52369;52.542;13.232;2022-12-07T00:30:02;11.75;;;5.38;;
65667;SDS011;52369;52.542;13.232;2022-12-07T00:32:28;10.73;;;5.07;;
65667;SDS011;52369;52.542;13.232;2022-12-07T00:34:54;12.68;;;5.85;;
65667;SDS011;52369;52.542;13.232;2022-12-07T00:37:20;13.18;;;6.32;;
65667;SDS011;52369;52.542;13.232;2022-12-07T00:39:46;10.13;;;4.65;;
65667;SDS011;52369;52.542;13.232;2022-12-07T00:42:12;10.80;;;5.35;;
65667;SDS011;52369;52.542;13.232;2022-12-07T00:44:38;11.02;;;4.93;;
65667;SDS011;52369;52.542;13.232;2022-12-07T00:47:04;11.95;;;5.65;;
65667;SDS011;52369;52.542;13.232;2022-12-07T00:49:30;12.00;;;5.75;;
65667;SDS011;52369;52.542;13.232;2022-12-07T00:51:56;10.73;;;5.25;;
65667;SDS011;52369;52.542;13.232;2022-12-07T00:54:22;10.00;;;5.05;;
65667;SDS011;52369;52.542;13.232;2022-12-07T00:56:48;13.10;;;5.50;;
65667;SDS011;52369;52.542;13.232;2022-12-07T00:59:14;9.98;;;5.05;;
65667;SDS011;52369;52.542;13.232;2022-12-07T01:01:40;11.90;;;5.70;;
65667;SDS011;52369;52.542;13.232;2022-12-07T01:04:06;11.90;;;5.20;;
65667;SDS011;52369;52.542;13.232;2022-12-07T01:06:32;10.25;;;4.72;;
65667;SDS011;52369;52.542;13.232;2022-12-07T01:08:58;10.80;;;4.95;;
65667;SDS011;52369;52.542;13.232;2022-12-07T01:11:27;9.90;;;5.13;;
65667;SDS011;52369;52.542;13.232;2022-12-07T01:13:54;10.35;;;4.90;;
65667;SDS011;52369;52.542;13.232;2022-12-07T01:16:21;9.98;;;4.90;;
65667;SDS011;52369;52.542;13.232;2022-12-07T01:18:47;10.35;;;4.90;;
65667;SDS011;52369;52.542;13.232;2022-12-07T01:23:40;7.25;;;3.47;;
65667;SDS011;52369;52.542;13.232;2022-12-07T01:26:07;9.70;;;4.57;;
65667;SDS011;52369;52.542;13.232;2022-12-07T01:28:34;9.48;;;4.60;;
65667;SDS011;52369;52.542;13.232;2022-12-07T01:31:01;7.03;;;3.40;;
65667;SDS011;52369;52.542;13.232;2022-12-07T01:33:28;9.15;;;4.28;;
65667;SDS011;52369;52.542;13.232;2022-12-07T01:35:59;8.48;;;3.97;;
65667;SDS011;52369;52.542;13.232;2022-12-07T01:38:25;8.57;;;4.20;;
65667;SDS011;52369;52.542;13.232;2022-12-07T01:40:55;9.85;;;4.18;;
65667;SDS011;52369;52.542;13.232;2022-12-07T01:43:21;8.95;;;4.05;;
65667;SDS011;52369;52.542;13.232;2022-12-07T01:45:48;10.43;;;4.45;;
65667;SDS011;52369;52.542;13.232;2022-12-07T01:48:14;7.85;;;4.10;;
65667;SDS011;52369;52.542;13.232;2022-12-07T01:50:43;9.20;;;4.30;;
65667;SDS011;52369;52.542;13.232;2022-12-07T01:53:10;15.93;;;6.65;;
65667;SDS011;52369;52.542;13.232;2022-12-07T01:55:37;9.13;;;4.03;;
65667;SDS011;52369;52.542;13.232;2022-12-07T01:58:04;10.52;;;5.03;;
65667;SDS011;52369;52.542;13.232;2022-12-07T02:00:30;9.35;;;4.25;;
65667;SDS011;52369;52.542;13.232;2022-12-07T02:03:14;6.22;;;3.70;;
65667;SDS011;52369;52.542;13.232;2022-12-07T02:05:42;8.10;;;4.00;;
65667;SDS011;52369;52.542;13.232;2022-12-07T02:08:09;8.93;;;4.32;;
65667;SDS011;52369;52.542;13.232;2022-12-07T02:10:35;8.15;;;4.00;;
65667;SDS011;52369;52.542;13.232;2022-12-07T02:13:02;9.45;;;4.38;;
65667;SDS011;52369;52.542;13.232;2022-12-07T02:15:36;10.02;;;4.93;;
65667;SDS011;52369;52.542;13.232;2022-12-07T02:18:08;10.27;;;3.95;;
65667;SDS011;52369;52.542;13.232;2022-12-07T02:23:38;9.40;;;3.67;;
65667;SDS011;52369;52.542;13.232;2022-12-07T02:28:37;10.02;;;4.68;;
65667;SDS011;52369;52.542;13.232;2022-12-07T02:31:11;11.07;;;5.03;;
65667;SDS011;52369;52.542;13.232;2022-12-07T02:33:42;10.20;;;5.55;;
65667;SDS011;52369;52.542;13.232;2022-12-07T02:36:11;11.30;;;4.88;;
65667;SDS011;52369;52.542;13.232;2022-12-07T02:38:39;10.35;;;4.80;;
65667;SDS011;52369;52.542;13.232;2022-12-07T02:43:36;10.80;;;5.00;;
65667;SDS011;52369;52.542;13.232;2022-12-07T02:46:05;9.13;;;5.03;;
65667;SDS011;52369;52.542;13.232;2022-12-07T02:48:32;8.63;;;4.75;;
65667;SDS011;52369;52.542;13.232;2022-12-07T02:50:59;11.90;;;5.70;;
65667;SDS011;52369;52.542;13.232;2022-12-07T02:53:42;10.43;;;5.18;;
65667;SDS011;52369;52.542;13.232;2022-12-07T03:01:38;9.55;;;4.75;;
65667;SDS011;52369;52.542;13.232;2022-12-07T03:07:24;11.10;;;5.55;;
65667;SDS011;52369;52.542;13.232;2022-12-07T03:12:20;12.15;;;5.60;;
65667;SDS011;52369;52.542;13.232;2022-12-07T03:14:52;15.40;;;8.07;;
65667;SDS011;52369;52.542;13.232;2022-12-07T03:17:24;12.68;;;5.88;;
65667;SDS011;52369;52.542;13.232;2022-12-07T03:19:52;12.68;;;5.50;;
65667;SDS011;52369;52.542;13.232;2022-12-07T03:22:20;14.02;;;5.97;;
65667;SDS011;52369;52.542;13.232;2022-12-07T03:24:49;12.75;;;5.88;;
65667;SDS011;52369;52.542;13.232;2022-12-07T03:27:21;13.93;;;6.15;;
65667;SDS011;52369;52.542;13.232;2022-12-07T03:29:51;13.00;;;6.45;;
65667;SDS011;52369;52.542;13.232;2022-12-07T03:32:20;16.25;;;6.97;;
65667;SDS011;52369;52.542;13.232;2022-12-07T03:34:53;14.70;;;6.43;;
65667;SDS011;52369;52.542;13.232;2022-12-07T03:39:57;14.93;;;6.28;;
65667;SDS011;52369;52.542;13.232;2022-12-07T03:42:25;12.40;;;6.40;;
65667;SDS011;52369;52.542;13.232;2022-12-07T03:44:52;13.05;;;6.50;;
65667;SDS011;52369;52.542;13.232;2022-12-07T03:50:07;14.48;;;6.28;;
65667;SDS011;52369;52.542;13.232;2022-12-07T03:52:36;15.20;;;6.47;;
65667;SDS011;52369;52.542;13.232;2022-12-07T03:55:12;15.70;;;7.50;;
65667;SDS011;52369;52.542;13.232;2022-12-07T03:57:40;14.75;;;6.57;;
65667;SDS011;52369;52.542;13.232;2022-12-07T04:00:07;14.30;;;6.22;;
65667;SDS011;52369;52.542;13.232;2022-12-07T04:02:34;15.18;;;7.75;;
65667;SDS011;52369;52.542;13.232;2022-12-07T04:05:00;18.27;;;6.80;;
65667;SDS011;52369;52.542;13.232;2022-12-07T04:07:26;14.60;;;6.97;;
65667;SDS011;52369;52.542;13.232;2022-12-07T04:09:51;17.88;;;7.88;;
65667;SDS011;52369;52.542;13.232;2022-12-07T04:12:19;16.73;;;6.53;;
65667;SDS011;52369;52.542;13.232;2022-12-07T04:14:45;15.27;;;6.70;;
65667;SDS011;52369;52.542;13.232;2022-12-07T04:17:11;15.98;;;7.32;;
65667;SDS011;52369;52.542;13.232;2022-12-07T04:19:38;17.65;;;7.53;;
65667;SDS011;52369;52.542;13.232;2022-12-07T04:22:04;18.65;;;7.53;;
65667;SDS011;52369;52.542;13.232;2022-12-07T04:24:30;16.98;;;7.25;;
65667;SDS011;52369;52.542;13.232;2022-12-07T04:26:56;17.55;;;7.65;;
65667;SDS011;52369;52.542;13.232;2022-12-07T04:29:23;16.92;;;7.90;;
65667;SDS011;52369;52.542;13.232;2022-12-07T04:31:49;17.13;;;8.02;;
65667;SDS011;52369;52.542;13.232;2022-12-07T04:34:15;19.63;;;8.25;;
65667;SDS011;52369;52.542;13.232;2022-12-07T04:36:42;19.98;;;8.60;;
65667;SDS011;52369;52.542;13.232;2022-12-07T04:39:13;42.22;;;18.13;;
65667;SDS011;52369;52.542;13.232;2022-12-07T04:41:42;19.23;;;8.73;;
65667;SDS011;52369;52.542;13.232;2022-12-07T04:44:14;20.67;;;9.48;;
65667;SDS011;52369;52.542;13.232;2022-12-07T04:46:40;24.00;;;9.40;;
65667;SDS011;52369;52.542;13.232;2022-12-07T04:49:06;22.88;;;9.35;;
65667;SDS011;52369;52.542;13.232;2022-12-07T04:51:32;22.52;;;9.63;;
65667;SDS011;52369;52.542;13.232;2022-12-07T04:53:58;19.50;;;9.98;;
65667;SDS011;52369;52.542;13.232;2022-12-07T04:56:24;21.13;;;9.60;;
65667;SDS011;52369;52.542;13.232;2022-12-07T04:58:51;23.17;;;9.38;;
65667;SDS011;52369;52.542;13.232;2022-12-07T05:01:18;22.15;;;9.68;;
65667;SDS011;52369;52.542;13.232;2022-12-07T05:03:44;23.45;;;9.90;;
65667;SDS011;52369;52.542;13.232;2022-12-07T05:06:10;20.15;;;9.48;;
65667;SDS011;52369;52.542;13.232;2022-12-07T05:08:37;22.35;;;10.27;;
65667;SDS011;52369;52.542;13.232;2022-12-07T05:11:03;24.63;;;10.90;;
65667;SDS011;52369;52.542;13.232;2022-12-07T05:13:29;21.48;;;9.93;;
65667;SDS011;52369;52.542;13.232;2022-12-07T05:15:55;31.92;;;11.38;;
65667;SDS011;52369;52.542;13.232;2022-12-07T05:18:21;28.33;;;10.63;;
65667;SDS011;52369;52.542;13.232;2022-12-07T05:20:47;25.73;;;10.77;;
65667;SDS011;52369;52.542;13.232;2022-12-07T05:23:14;23.35;;;10.32;;
65667;SDS011;52369;52.542;13.232;2022-12-07T05:25:40;25.02;;;10.85;;
65667;SDS011;52369;52.542;13.232;2022-12-07T05:28:06;25.50;;;10.15;;
65667;SDS011;52369;52.542;13.232;2022-12-07T05:30:32;24.45;;;10.40;;
65667;SDS011;52369;52.542;13.232;2022-12-07T05:32:58;24.50;;;11.75;;
65667;SDS011;52369;52.542;13.232;2022-12-07T05:35:25;25.30;;;10.50;;
65667;SDS011;52369;52.542;13.232;2022-12-07T05:37:51;26.27;;;10.93;;
65667;SDS011;52369;52.542;13.232;2022-12-07T05:40:17;24.27;;;10.48;;
65667;SDS011;52369;52.542;13.232;2022-12-07T05:42:44;23.83;;;11.15;;
65667;SDS011;52369;52.542;13.232;2022-12-07T05:45:10;27.92;;;11.75;;
65667;SDS011;52369;52.542;13.232;2022-12-07T05:47:36;29.15;;;12.02;;
65667;SDS011;52369;52.542;13.232;2022-12-07T05:50:03;26.80;;;11.68;;
65667;SDS011;52369;52.542;13.232;2022-12-07T05:52:29;28.58;;;11.82;;
65667;SDS011;52369;52.542;13.232;2022-12-07T05:54:55;26.58;;;11.60;;
65667;SDS011;52369;52.542;13.232;2022-12-07T05:57:21;23.38;;;10.77;;
65667;SDS011;52369;52.542;13.232;2022-12-07T05:59:47;28.35;;;12.45;;
65667;SDS011;52369;52.542;13.232;2022-12-07T06:02:14;28.75;;;12.32;;
65667;SDS011;52369;52.542;13.232;2022-12-07T06:04:42;28.13;;;11.98;;
65667;SDS011;52369;52.542;13.232;2022-12-07T06:07:08;27.38;;;12.27;;
65667;SDS011;52369;52.542;13.232;2022-12-07T06:09:35;26.02;;;11.60;;
65667;SDS011;52369;52.542;13.232;2022-12-07T06:12:01;29.15;;;10.82;;
65667;SDS011;52369;52.542;13.232;2022-12-07T06:14:46;26.73;;;10.60;;
65667;SDS011;52369;52.542;13.232;2022-12-07T06:17:13;31.73;;;11.98;;
65667;SDS011;52369;52.542;13.232;2022-12-07T06:19:39;24.33;;;9.80;;
65667;SDS011;52369;52.542;13.232;2022-12-07T06:22:05;24.38;;;10.80;;
65667;SDS011;52369;52.542;13.232;2022-12-07T06:24:32;23.73;;;10.23;;
65667;SDS011;52369;52.542;13.232;2022-12-07T06:26:58;25.65;;;11.18;;
65667;SDS011;52369;52.542;13.232;2022-12-07T06:29:25;26.48;;;9.82;;
65667;SDS011;52369;52.542;13.232;2022-12-07T06:31:51;24.35;;;10.48;;
65667;SDS011;52369;52.542;13.232;2022-12-07T06:34:18;23.00;;;10.45;;
65667;SDS011;52369;52.542;13.232;2022-12-07T06:36:45;22.23;;;10.20;;
65667;SDS011;52369;52.542;13.232;2022-12-07T06:39:12;22.05;;;10.57;;
65667;SDS011;52369;52.542;13.232;2022-12-07T06:41:38;25.23;;;10.15;;
65667;SDS011;52369;52.542;13.232;2022-12-07T06:44:05;28.98;;;10.50;;
65667;SDS011;52369;52.542;13.232;2022-12-07T06:46:31;24.45;;;11.20;;
65667;SDS011;52369;52.542;13.232;2022-12-07T06:48:57;27.98;;;11.30;;
65667;SDS011;52369;52.542;13.232;2022-12-07T06:51:23;26.33;;;10.93;;
65667;SDS011;52369;52.542;13.232;2022-12-07T06:53:49;25.88;;;10.93;;
65667;SDS011;52369;52.542;13.232;2022-12-07T06:56:16;22.60;;;10.18;;
65667;SDS011;52369;52.542;13.232;2022-12-07T06:58:42;25.10;;;11.60;;
65667;SDS011;52369;52.542;13.232;2022-12-07T07:01:09;22.42;;;9.48;;
65667;SDS011;52369;52.542;13.232;2022-12-07T07:03:35;24.20;;;10.75;;
65667;SDS011;52369;52.542;13.232;2022-12-07T07:06:01;28.02;;;11.52;;
65667;SDS011;52369;52.542;13.232;2022-12-07T07:08:27;24.55;;;10.88;;
65667;SDS011;52369;52.542;13.232;2022-12-07T07:10:53;25.88;;;10.52;;
65667;SDS011;52369;52.542;13.232;2022-12-07T07:13:19;26.45;;;12.65;;
65667;SDS011;52369;52.542;13.232;2022-12-07T07:15:45;23.80;;;10.13;;
65667;SDS011;52369;52.542;13.232;2022-12-07T07:18:11;24.85;;;11.63;;
65667;SDS011;52369;52.542;13.232;2022-12-07T07:20:38;25.45;;;10.32;;
65667;SDS011;52369;52.542;13.232;2022-12-07T07:23:04;22.55;;;10.88;;
65667;SDS011;52369;52.542;13.232;2022-12-07T07:25:30;20.38;;;9.80;;
65667;SDS011;52369;52.542;13.232;2022-12-07T07:27:56;19.63;;;9.40;;
65667;SDS011;52369;52.542;13.232;2022-12-07T07:30:22;23.20;;;10.20;;
65667;SDS011;52369;52.542;13.232;2022-12-07T07:32:48;17.63;;;8.60;;
65667;SDS011;52369;52.542;13.232;2022-12-07T07:35:14;23.10;;;8.52;;
65667;SDS011;52369;52.542;13.232;2022-12-07T07:37:41;18.90;;;9.02;;
65667;SDS011;52369;52.542;13.232;2022-12-07T07:40:07;16.27;;;7.68;;
65667;SDS011;52369;52.542;13.232;2022-12-07T07:42:33;16.90;;;7.88;;
65667;SDS011;52369;52.542;13.232;2022-12-07T07:44:59;17.63;;;9.13;;
65667;SDS011;52369;52.542;13.232;2022-12-07T07:47:25;16.20;;;7.32;;
65667;SDS011;52369;52.542;13.232;2022-12-07T07:49:51;16.75;;;7.95;;
65667;SDS011;52369;52.542;13.232;2022-12-07T07:52:17;16.35;;;7.22;;
65667;SDS011;52369;52.542;13.232;2022-12-07T07:54:44;16.17;;;6.65;;
65667;SDS011;52369;52.542;13.232;2022-12-07T07:57:10;15.18;;;6.47;;
65667;SDS011;52369;52.542;13.232;2022-12-07T07:59:36;12.60;;;5.47;;
65667;SDS011;52369;52.542;13.232;2022-12-07T08:02:02;14.63;;;6.10;;
65667;SDS011;52369;52.542;13.232;2022-12-07T08:04:28;13.45;;;5.82;;
65667;SDS011;52369;52.542;13.232;2022-12-07T08:06:54;12.77;;;5.82;;
65667;SDS011;52369;52.542;13.232;2022-12-07T08:09:20;10.63;;;5.38;;
65667;SDS011;52369;52.542;13.232;2022-12-07T08:11:46;11.13;;;5.25;;
65667;SDS011;52369;52.542;13.232;2022-12-07T08:14:12;10.90;;;4.97;;
65667;SDS011;52369;52.542;13.232;2022-12-07T08:16:38;12.77;;;5.25;;
65667;SDS011;52369;52.542;13.232;2022-12-07T08:19:04;10.45;;;5.00;;
65667;SDS011;52369;52.542;13.232;2022-12-07T08:21:30;10.77;;;4.43;;
65667;SDS011;52369;52.542;13.232;2022-12-07T08:23:57;9.65;;;4.40;;
65667;SDS011;52369;52.542;13.232;2022-12-07T08:26:23;9.13;;;4.25;;
65667;SDS011;52369;52.542;13.232;2022-12-07T08:28:49;8.68;;;4.40;;
65667;SDS011;52369;52.542;13.232;2022-12-07T08:31:16;8.18;;;3.97;;
65667;SDS011;52369;52.542;13.232;2022-12-07T08:33:44;5.22;;;3.17;;
65667;SDS011;52369;52.542;13.232;2022-12-07T08:36:11;5.55;;;3.22;;
65667;SDS011;52369;52.542;13.232;2022-12-07T08:38:38;4.57;;;2.90;;
65667;SDS011;52369;52.542;13.232;2022-12-07T08:41:04;6.25;;;3.10;;
65667;SDS011;52369;52.542;13.232;2022-12-07T08:43:31;4.63;;;2.30;;
65667;SDS011;52369;52.542;13.232;2022-12-07T08:48:33;5.13;;;3.03;;
65667;SDS011;52369;52.542;13.232;2022-12-07T08:51:01;4.20;;;2.70;;
65667;SDS011;52369;52.542;13.232;2022-12-07T08:53:27;4.30;;;2.38;;
65667;SDS011;52369;52.542;13.232;2022-12-07T08:55:54;2.90;;;2.20;;
65667;SDS011;52369;52.542;13.232;2022-12-07T08:58:22;7.10;;;2.60;;
65667;SDS011;52369;52.542;13.232;2022-12-07T09:00:48;6.60;;;3.00;;
65667;SDS011;52369;52.542;13.232;2022-12-07T09:03:14;3.95;;;2.38;;
65667;SDS011;52369;52.542;13.232;2022-12-07T09:05:40;2.22;;;2.03;;
65667;SDS011;52369;52.542;13.232;2022-12-07T09:08:06;4.40;;;2.88;;
65667;SDS011;52369;52.542;13.232;2022-12-07T09:10:32;3.35;;;2.15;;
65667;SDS011;52369;52.542;13.232;2022-12-07T09:12:58;4.40;;;2.35;;
65667;SDS011;52369;52.542;13.232;2022-12-07T09:15:28;6.38;;;3.05;;
65667;SDS011;52369;52.542;13.232;2022-12-07T09:17:54;7.30;;;2.58;;
65667;SDS011;52369;52.542;13.232;2022-12-07T09:20:20;7.90;;;2.85;;
65667;SDS011;52369;52.542;13.232;2022-12-07T09:22:46;4.10;;;2.50;;
65667;SDS011;52369;52.542;13.232;2022-12-07T09:25:13;7.97;;;2.97;;
65667;SDS011;52369;52.542;13.232;2022-12-07T09:27:39;4.75;;;3.03;;
65667;SDS011;52369;52.542;13.232;2022-12-07T09:30:05;6.18;;;3.45;;
65667;SDS011;52369;52.542;13.232;2022-12-07T09:32:32;6.65;;;3.10;;
65667;SDS011;52369;52.542;13.232;2022-12-07T09:34:58;3.03;;;2.25;;
65667;SDS011;52369;52.542;13.232;2022-12-07T09:37:24;5.40;;;2.72;;
65667;SDS011;52369;52.542;13.232;2022-12-07T09:39:50;5.10;;;2.97;;
65667;SDS011;52369;52.542;13.232;2022-12-07T09:42:22;6.20;;;3.22;;
65667;SDS011;52369;52.542;13.232;2022-12-07T09:44:50;6.43;;;3.97;;
65667;SDS011;52369;52.542;13.232;2022-12-07T09:47:16;5.70;;;3.35;;
65667;SDS011;52369;52.542;13.232;2022-12-07T09:49:42;5.40;;;3.40;;
65667;SDS011;52369;52.542;13.232;2022-12-07T09:54:35;4.07;;;2.47;;
65667;SDS011;52369;52.542;13.232;2022-12-07T09:57:02;4.22;;;3.03;;
65667;SDS011;52369;52.542;13.232;2022-12-07T09:59:28;6.53;;;3.25;;
65667;SDS011;52369;52.542;13.232;2022-12-07T10:01:55;5.80;;;3.40;;
65667;SDS011;52369;52.542;13.232;2022-12-07T10:04:22;6.22;;;3.30;;
65667;SDS011;52369;52.542;13.232;2022-12-07T10:06:49;4.55;;;2.72;;
65667;SDS011;52369;52.542;13.232;2022-12-07T10:09:19;4.07;;;2.83;;
65667;SDS011;52369;52.542;13.232;2022-12-07T10:12:00;7.00;;;3.00;;
65667;SDS011;52369;52.542;13.232;2022-12-07T10:14:27;6.55;;;3.50;;
65667;SDS011;52369;52.542;13.232;2022-12-07T10:16:53;9.93;;;3.17;;
65667;SDS011;52369;52.542;13.232;2022-12-07T10:19:22;3.92;;;2.65;;
65667;SDS011;52369;52.542;13.232;2022-12-07T10:24:33;4.75;;;2.90;;
65667;SDS011;52369;52.542;13.232;2022-12-07T10:26:59;7.53;;;3.17;;
65667;SDS011;52369;52.542;13.232;2022-12-07T10:29:29;3.35;;;2.67;;
65667;SDS011;52369;52.542;13.232;2022-12-07T10:31:57;4.38;;;3.03;;
65667;SDS011;52369;52.542;13.232;2022-12-07T10:34:25;5.18;;;3.10;;
65667;SDS011;52369;52.542;13.232;2022-12-07T10:36:53;8.38;;;3.47;;
65667;SDS011;52369;52.542;13.232;2022-12-07T10:39:32;6.03;;;3.88;;
65667;SDS011;52369;52.542;13.232;2022-12-07T10:42:08;5.80;;;3.40;;
65667;SDS011;52369;52.542;13.232;2022-12-07T10:44:41;5.57;;;3.08;;
65667;SDS011;52369;52.542;13.232;2022-12-07T11:05:01;7.75;;;3.72;;
65667;SDS011;52369;52.542;13.232;2022-12-07T11:38:11;6.65;;;3.20;;
65667;SDS011;52369;52.542;13.232;2022-12-07T11:40:37;5.60;;;3.53;;
65667;SDS011;52369;52.542;13.232;2022-12-07T11:45:41;8.20;;;4.55;;
65667;SDS011;52369;52.542;13.232;2022-12-07T11:48:11;10.02;;;4.47;;
65667;SDS011;52369;52.542;13.232;2022-12-07T11:50:53;5.15;;;3.45;;
65667;SDS011;52369;52.542;13.232;2022-12-07T11:53:21;7.07;;;3.47;;
65667;SDS011;52369;52.542;13.232;2022-12-07T11:55:50;6.60;;;3.67;;
65667;SDS011;52369;52.542;13.232;2022-12-07T12:03:36;7.53;;;3.95;;
65667;SDS011;52369;52.542;13.232;2022-12-07T12:06:04;5.55;;;3.17;;
65667;SDS011;52369;52.542;13.232;2022-12-07T12:08:31;7.20;;;3.13;;
65667;SDS011;52369;52.542;13.232;2022-12-07T12:21:31;4.88;;;2.72;;
65667;SDS011;52369;52.542;13.232;2022-12-07T12:24:00;4.72;;;2.83;;
65667;SDS011;52369;52.542;13.232;2022-12-07T12:26:30;5.93;;;3.03;;
65667;SDS011;52369;52.542;13.232;2022-12-07T12:31:34;5.82;;;2.72;;
65667;SDS011;52369;52.542;13.232;2022-12-07T12:34:02;6.85;;;2.90;;
65667;SDS011;52369;52.542;13.232;2022-12-07T12:54:34;9.85;;;2.97;;
65667;SDS011;52369;52.542;13.232;2022-12-07T12:59:31;7.43;;;2.95;;
65667;SDS011;52369;52.542;13.232;2022-12-07T13:06:53;5.47;;;2.58;;
65667;SDS011;52369;52.542;13.232;2022-12-07T13:09:20;4.28;;;2.47;;
65667;SDS011;52369;52.542;13.232;2022-12-07T13:11:47;6.25;;;2.17;;
65667;SDS011;52369;52.542;13.232;2022-12-07T13:20:03;9.80;;;3.72;;
65667;SDS011;52369;52.542;13.232;2022-12-07T13:25:07;3.60;;;2.38;;
65667;SDS011;52369;52.542;13.232;2022-12-07T13:27:37;4.55;;;2.30;;
65667;SDS011;52369;52.542;13.232;2022-12-07T13:30:05;6.95;;;2.75;;
65667;SDS011;52369;52.542;13.232;2022-12-07T13:32:33;5.85;;;2.60;;
65667;SDS011;52369;52.542;13.232;2022-12-07T13:35:00;7.22;;;2.67;;
65667;SDS011;52369;52.542;13.232;2022-12-07T13:37:27;3.72;;;2.05;;
65667;SDS011;52369;52.542;13.232;2022-12-07T13:39:57;3.83;;;2.10;;
65667;SDS011;52369;52.542;13.232;2022-12-07T13:42:25;7.65;;;2.40;;
65667;SDS011;52369;52.542;13.232;2022-12-07T13:44:51;7.65;;;2.40;;
65667;SDS011;52369;52.542;13.232;2022-12-07T13:47:25;5.35;;;2.65;;
65667;SDS011;52369;52.542;13.232;2022-12-07T13:49:53;7.13;;;2.60;;
65667;SDS011;52369;52.542;13.232;2022-12-07T13:54:49;6.57;;;2.58;;
65667;SDS011;52369;52.542;13.232;2022-12-07T13:57:16;6.18;;;3.00;;
65667;SDS011;52369;52.542;13.232;2022-12-07T13:59:42;6.82;;;3.13;;
65667;SDS011;52369;52.542;13.232;2022-12-07T14:02:21;6.80;;;2.58;;
65667;SDS011;52369;52.542;13.232;2022-12-07T14:04:48;5.25;;;2.35;;
65667;SDS011;52369;52.542;13.232;2022-12-07T14:07:19;4.55;;;2.47;;
65667;SDS011;52369;52.542;13.232;2022-12-07T14:09:56;8.95;;;2.72;;
65667;SDS011;52369;52.542;13.232;2022-12-07T14:12:23;3.00;;;2.05;;
65667;SDS011;52369;52.542;13.232;2022-12-07T14:14:49;7.82;;;3.05;;
65667;SDS011;52369;52.542;13.232;2022-12-07T14:17:17;6.03;;;2.70;;
65667;SDS011;52369;52.542;13.232;2022-12-07T14:19:45;7.30;;;2.83;;
65667;SDS011;52369;52.542;13.232;2022-12-07T14:22:54;7.55;;;2.55;;
65667;SDS011;52369;52.542;13.232;2022-12-07T14:27:39;7.63;;;2.40;;
65667;SDS011;52369;52.542;13.232;2022-12-07T14:30:15;4.60;;;2.65;;
65667;SDS011;52369;52.542;13.232;2022-12-07T14:32:42;7.80;;;2.88;;
65667;SDS011;52369;52.542;13.232;2022-12-07T14:35:14;6.80;;;2.90;;
65667;SDS011;52369;52.542;13.232;2022-12-07T14:37:40;5.88;;;2.80;;
65667;SDS011;52369;52.542;13.232;2022-12-07T14:40:07;5.43;;;2.85;;
65667;SDS011;52369;52.542;13.232;2022-12-07T14:42:33;7.93;;;2.85;;
65667;SDS011;52369;52.542;13.232;2022-12-07T14:45:00;4.13;;;2.75;;
65667;SDS011;52369;52.542;13.232;2022-12-07T14:47:26;8.15;;;2.92;;
65667;SDS011;52369;52.542;13.232;2022-12-07T14:49:52;7.85;;;2.80;;
65667;SDS011;52369;52.542;13.232;2022-12-07T14:52:23;5.90;;;3.00;;
65667;SDS011;52369;52.542;13.232;2022-12-07T14:54:50;5.95;;;2.42;;
65667;SDS011;52369;52.542;13.232;2022-12-07T14:57:16;9.95;;;2.55;;
65667;SDS011;52369;52.542;13.232;2022-12-07T14:59:42;9.77;;;2.33;;
65667;SDS011;52369;52.542;13.232;2022-12-07T15:02:09;3.75;;;2.03;;
65667;SDS011;52369;52.542;13.232;2022-12-07T15:04:36;4.57;;;2.03;;
65667;SDS011;52369;52.542;13.232;2022-12-07T15:07:02;7.85;;;2.15;;
65667;SDS011;52369;52.542;13.232;2022-12-07T15:09:29;6.55;;;2.17;;
65667;SDS011;52369;52.542;13.232;2022-12-07T15:11:55;5.28;;;1.83;;
65667;SDS011;52369;52.542;13.232;2022-12-07T15:14:21;7.10;;;3.13;;
65667;SDS011;52369;52.542;13.232;2022-12-07T15:16:47;3.83;;;2.10;;
65667;SDS011;52369;52.542;13.232;2022-12-07T15:19:17;4.97;;;1.98;;
65667;SDS011;52369;52.542;13.232;2022-12-07T15:21:43;4.72;;;1.95;;
65667;SDS011;52369;52.542;13.232;2022-12-07T15:24:10;5.22;;;2.20;;
65667;SDS011;52369;52.542;13.232;2022-12-07T15:26:37;5.10;;;2.22;;
65667;SDS011;52369;52.542;13.232;2022-12-07T15:29:03;7.70;;;2.65;;
65667;SDS011;52369;52.542;13.232;2022-12-07T15:31:30;5.63;;;2.28;;
65667;SDS011;52369;52.542;13.232;2022-12-07T15:33:56;7.15;;;2.20;;
65667;SDS011;52369;52.542;13.232;2022-12-07T15:36:23;2.28;;;1.88;;
65667;SDS011;52369;52.542;13.232;2022-12-07T15:38:49;4.50;;;2.40;;
65667;SDS011;52369;52.542;13.232;2022-12-07T15:41:16;5.95;;;2.38;;
65667;SDS011;52369;52.542;13.232;2022-12-07T15:43:42;3.60;;;1.88;;
65667;SDS011;52369;52.542;13.232;2022-12-07T15:46:34;8.65;;;2.38;;
65667;SDS011;52369;52.542;13.232;2022-12-07T15:49:00;4.63;;;1.92;;
65667;SDS011;52369;52.542;13.232;2022-12-07T15:51:26;8.25;;;2.38;;
65667;SDS011;52369;52.542;13.232;2022-12-07T15:53:53;3.85;;;2.38;;
65667;SDS011;52369;52.542;13.232;2022-12-07T15:56:19;5.78;;;1.83;;
65667;SDS011;52369;52.542;13.232;2022-12-07T15:58:45;4.55;;;2.05;;
65667;SDS011;52369;52.542;13.232;2022-12-07T16:01:11;7.65;;;2.72;;
65667;SDS011;52369;52.542;13.232;2022-12-07T16:03:38;6.43;;;2.00;;
65667;SDS011;52369;52.542;13.232;2022-12-07T16:06:04;3.78;;;1.98;;
65667;SDS011;52369;52.542;13.232;2022-12-07T16:08:30;8.50;;;2.42;;
65667;SDS011;52369;52.542;13.232;2022-12-07T16:10:57;8.60;;;2.00;;
65667;SDS011;52369;52.542;13.232;2022-12-07T16:13:23;9.50;;;2.63;;
65667;SDS011;52369;52.542;13.232;2022-12-07T16:15:49;9.73;;;2.33;;
65667;SDS011;52369;52.542;13.232;2022-12-07T16:18:15;6.93;;;2.45;;
65667;SDS011;52369;52.542;13.232;2022-12-07T16:20:41;7.38;;;2.55;;
65667;SDS011;52369;52.542;13.232;2022-12-07T16:23:07;7.00;;;2.38;;
65667;SDS011;52369;52.542;13.232;2022-12-07T16:25:33;6.03;;;2.53;;
65667;SDS011;52369;52.542;13.232;2022-12-07T16:27:59;6.22;;;2.63;;
65667;SDS011;52369;52.542;13.232;2022-12-07T16:30:25;5.15;;;2.50;;
65667;SDS011;52369;52.542;13.232;2022-12-07T16:32:51;10.32;;;2.45;;
65667;SDS011;52369;52.542;13.232;2022-12-07T16:35:17;8.10;;;2.83;;
65667;SDS011;52369;52.542;13.232;2022-12-07T16:37:43;8.52;;;2.90;;
65667;SDS011;52369;52.542;13.232;2022-12-07T16:40:10;6.78;;;2.92;;
65667;SDS011;52369;52.542;13.232;2022-12-07T16:42:36;9.82;;;3.55;;
65667;SDS011;52369;52.542;13.232;2022-12-07T16:45:02;7.45;;;3.15;;
65667;SDS011;52369;52.542;13.232;2022-12-07T16:47:28;6.65;;;2.63;;
65667;SDS011;52369;52.542;13.232;2022-12-07T16:49:54;6.28;;;2.72;;